Time;durP1;ratioP1;P1;durP2;ratioP2;P2;SDS_P1;SDS_P2;PMS_P1;PMS_P2;Temp;Humidity;BMP_temperature;BMP_pressure;BME280_temperature;BME280_humidity;BME280_pressure;Samples;Min_cycle;Max_cycle;Signal;HPM_P1;HPM_P2
2023/09/13 00:02:08;;;;;;;;;;;18.10;60.30;;;;;;5051809;28;19955;-69
2023/09/13 00:04:34;;;;;;;;;;;18.00;60.10;;;;;;5052677;28;19987;-69
2023/09/13 00:06:59;;;;;;;;;;;18.00;60.10;;;;;;5050836;28;19913;-69
2023/09/13 00:09:25;;;;;;;;;;;17.90;60.30;;;;;;5050986;28;19924;-69
2023/09/13 00:11:51;;;;;;;;;;;17.90;60.40;;;;;;5051257;28;19924;-69
2023/09/13 00:14:17;;;;;;;;;;;17.80;60.50;;;;;;5050775;28;19921;-69
2023/09/13 00:16:43;;;;;;;;;;;17.70;60.90;;;;;;5050460;28;19999;-69
2023/09/13 00:19:09;;;;;;;;;;;17.70;60.60;;;;;;5052110;28;19921;-69
2023/09/13 00:21:40;;;;;;;;;;;17.70;60.80;;;;;;5049878;28;20303;-69
2023/09/13 00:24:07;;;;;;;;;;;17.70;60.30;;;;;;5050928;28;20007;-70
2023/09/13 00:26:34;;;;;;;;;;;17.70;60.70;;;;;;5050615;28;20297;-69
2023/09/13 00:29:00;;;;;;;;;;;17.60;60.70;;;;;;5054884;28;19925;-69
2023/09/13 00:31:26;;;;;;;;;;;17.60;61.20;;;;;;5055284;28;19924;-69
2023/09/13 00:33:51;;;;;;;;;;;17.60;61.50;;;;;;5055017;28;19923;-69
2023/09/13 00:36:17;;;;;;;;;;;17.50;61.50;;;;;;5054471;28;20377;-70
2023/09/13 00:38:43;;;;;;;;;;;17.60;61.60;;;;;;5055885;28;19963;-69
2023/09/13 00:41:09;;;;;;;;;;;17.60;61.80;;;;;;5053615;28;20353;-69
2023/09/13 00:43:35;;;;;;;;;;;17.60;61.90;;;;;;5055692;28;19932;-70
2023/09/13 00:46:02;;;;;;;;;;;17.60;61.70;;;;;;5037710;28;20289;-69
2023/09/13 00:48:29;;;;;;;;;;;17.60;61.70;;;;;;5037984;28;19913;-69
2023/09/13 00:50:55;;;;;;;;;;;17.60;61.90;;;;;;5053517;28;20304;-70
2023/09/13 00:53:22;;;;;;;;;;;17.60;61.90;;;;;;5054472;28;19944;-69
2023/09/13 00:58:35;;;;;;;;;;;17.60;62.10;;;;;;5054955;28;19963;-69
2023/09/13 01:01:01;;;;;;;;;;;17.50;62.40;;;;;;5036485;28;19921;-70
2023/09/13 01:03:27;;;;;;;;;;;17.60;62.30;;;;;;5054491;28;19920;-69
2023/09/13 01:05:54;;;;;;;;;;;17.50;61.50;;;;;;5054123;28;19928;-70
2023/09/13 01:08:20;;;;;;;;;;;17.50;62.00;;;;;;5054385;28;20308;-70
2023/09/13 01:10:47;;;;;;;;;;;17.50;62.20;;;;;;5036585;28;19920;-69
2023/09/13 01:13:14;;;;;;;;;;;17.50;62.60;;;;;;5054362;28;19966;-69
2023/09/13 01:16:17;;;;;;;;;;;17.50;62.50;;;;;;5053823;28;19924;-69
2023/09/13 01:19:06;;;;;;;;;;;17.50;62.70;;;;;;5055282;28;20004;-69
2023/09/13 01:22:10;;;;;;;;;;;17.40;62.90;;;;;;5036712;28;20270;-69
2023/09/13 01:24:57;;;;;;;;;;;17.40;63.00;;;;;;5055319;28;19932;-69
2023/09/13 01:27:48;;;;;;;;;;;17.40;63.00;;;;;;5054811;28;19995;-69
2023/09/13 01:30:16;;;;;;;;;;;17.40;63.10;;;;;;5053086;28;19925;-69
2023/09/13 01:32:47;;;;;;;;;;;17.40;63.00;;;;;;5055119;28;19912;-68
2023/09/13 01:35:12;;;;;;;;;;;17.40;63.30;;;;;;5053419;28;19921;-71
2023/09/13 01:37:38;;;;;;;;;;;17.30;63.20;;;;;;5053669;28;20288;-70
2023/09/13 01:42:52;;;;;;;;;;;17.20;62.50;;;;;;5054679;28;19942;-71
2023/09/13 01:45:18;;;;;;;;;;;17.10;62.70;;;;;;5053342;28;19974;-71
2023/09/13 01:47:46;;;;;;;;;;;17.10;62.70;;;;;;5053639;28;20028;-71
2023/09/13 01:50:12;;;;;;;;;;;17.10;62.80;;;;;;5053533;28;19975;-71
2023/09/13 01:52:38;;;;;;;;;;;17.10;62.20;;;;;;5053678;28;20327;-70
2023/09/13 01:55:06;;;;;;;;;;;17.00;62.50;;;;;;5053229;28;20271;-70
2023/09/13 01:57:32;;;;;;;;;;;17.00;62.60;;;;;;5054570;28;19920;-70
2023/09/13 01:59:59;;;;;;;;;;;16.90;62.10;;;;;;5036704;28;19916;-71
2023/09/13 02:02:24;;;;;;;;;;;16.80;61.60;;;;;;5053821;28;19925;-70
2023/09/13 02:04:50;;;;;;;;;;;16.80;62.10;;;;;;5054767;28;20725;-70
2023/09/13 02:07:16;;;;;;;;;;;16.60;61.80;;;;;;5054199;28;19962;-70
2023/09/13 02:09:43;;;;;;;;;;;16.50;62.10;;;;;;5053239;28;19916;-70
2023/09/13 02:12:12;;;;;;;;;;;16.40;62.10;;;;;;5035448;28;19940;-70
2023/09/13 02:14:39;;;;;;;;;;;16.40;61.70;;;;;;5053172;28;20438;-70
2023/09/13 02:17:06;;;;;;;;;;;16.30;62.60;;;;;;5053802;28;19975;-70
2023/09/13 02:19:32;;;;;;;;;;;16.30;62.70;;;;;;5052841;28;20369;-70
2023/09/13 02:21:58;;;;;;;;;;;16.40;62.90;;;;;;5051938;28;19920;-71
2023/09/13 02:24:24;;;;;;;;;;;16.30;63.20;;;;;;5054141;28;20293;-70
2023/09/13 02:26:55;;;;;;;;;;;16.30;63.10;;;;;;5052346;28;20011;-70
2023/09/13 02:29:22;;;;;;;;;;;16.30;62.90;;;;;;5054021;28;19916;-70
2023/09/13 02:31:48;;;;;;;;;;;16.30;63.20;;;;;;5051795;28;19921;-70
2023/09/13 02:34:14;;;;;;;;;;;16.30;63.20;;;;;;5052580;28;19916;-70
2023/09/13 02:36:40;;;;;;;;;;;16.30;63.30;;;;;;5035526;28;19916;-70
2023/09/13 02:39:29;;;;;;;;;;;16.30;63.50;;;;;;5053783;28;19938;-70
2023/09/13 02:41:55;;;;;;;;;;;16.30;63.80;;;;;;5034804;28;20431;-70
2023/09/13 02:44:20;;;;;;;;;;;16.30;63.60;;;;;;5052291;28;19924;-70
2023/09/13 02:46:46;;;;;;;;;;;16.30;63.40;;;;;;5053357;28;20011;-70
2023/09/13 02:49:12;;;;;;;;;;;16.30;63.70;;;;;;5052218;28;19977;-71
2023/09/13 02:51:38;;;;;;;;;;;16.30;63.80;;;;;;5052044;28;20357;-70
2023/09/13 02:54:04;;;;;;;;;;;16.30;64.20;;;;;;5053509;28;19935;-70
2023/09/13 02:56:30;;;;;;;;;;;16.30;64.40;;;;;;5052007;28;19966;-70
2023/09/13 02:58:56;;;;;;;;;;;16.20;63.70;;;;;;5052181;28;19920;-70
2023/09/13 03:01:22;;;;;;;;;;;16.20;63.80;;;;;;5051136;28;19917;-70
2023/09/13 03:03:48;;;;;;;;;;;16.10;63.60;;;;;;5052120;28;20043;-70
2023/09/13 03:06:17;;;;;;;;;;;16.10;63.00;;;;;;5051594;28;20266;-70
2023/09/13 03:08:44;;;;;;;;;;;16.10;62.90;;;;;;5051963;28;19916;-71
2023/09/13 03:11:28;;;;;;;;;;;16.10;63.80;;;;;;5052163;28;20293;-70
2023/09/13 03:13:54;;;;;;;;;;;16.10;63.70;;;;;;5053168;28;19939;-70
2023/09/13 03:16:21;;;;;;;;;;;16.10;63.70;;;;;;5051523;28;19917;-70
2023/09/13 03:18:49;;;;;;;;;;;16.10;63.20;;;;;;5051937;28;20297;-70
2023/09/13 03:21:18;;;;;;;;;;;16.10;63.70;;;;;;5050741;28;19927;-70
2023/09/13 03:23:45;;;;;;;;;;;16.00;63.50;;;;;;5051718;28;19913;-70
2023/09/13 03:26:31;;;;;;;;;;;16.10;63.90;;;;;;5034490;28;19913;-70
2023/09/13 03:28:57;;;;;;;;;;;16.00;63.90;;;;;;5053208;28;19927;-70
2023/09/13 03:31:25;;;;;;;;;;;15.90;63.90;;;;;;5050629;28;19921;-70
2023/09/13 03:33:53;;;;;;;;;;;15.90;63.60;;;;;;5034730;28;19912;-70
2023/09/13 03:36:20;;;;;;;;;;;15.90;63.60;;;;;;5051034;28;19912;-71
2023/09/13 03:38:46;;;;;;;;;;;15.90;63.90;;;;;;5051450;28;19966;-71
2023/09/13 03:41:31;;;;;;;;;;;15.80;63.30;;;;;;5050156;28;19917;-70
2023/09/13 03:43:57;;;;;;;;;;;15.70;63.90;;;;;;5052388;28;19920;-70
2023/09/13 03:46:23;;;;;;;;;;;15.70;63.90;;;;;;5052403;28;20385;-70
2023/09/13 03:48:49;;;;;;;;;;;15.60;63.70;;;;;;5052609;28;20026;-70
2023/09/13 03:51:15;;;;;;;;;;;15.50;63.70;;;;;;5050362;28;19973;-71
2023/09/13 03:53:41;;;;;;;;;;;15.50;63.10;;;;;;5035042;28;19920;-70
2023/09/13 03:56:07;;;;;;;;;;;15.50;63.70;;;;;;5050768;28;19913;-71
2023/09/13 03:58:51;;;;;;;;;;;15.50;63.90;;;;;;5052336;28;20262;-70
2023/09/13 04:01:17;;;;;;;;;;;15.50;63.70;;;;;;5049276;28;19924;-71
2023/09/13 04:03:43;;;;;;;;;;;15.50;64.20;;;;;;5034076;28;20439;-70
2023/09/13 04:06:09;;;;;;;;;;;15.50;64.20;;;;;;5050625;28;19917;-70
2023/09/13 04:08:35;;;;;;;;;;;15.50;64.80;;;;;;5052085;28;19962;-70
2023/09/13 04:11:02;;;;;;;;;;;15.50;65.00;;;;;;5033271;28;19917;-70
2023/09/13 04:13:27;;;;;;;;;;;15.60;64.80;;;;;;5052057;28;19913;-70
2023/09/13 04:15:53;;;;;;;;;;;15.60;64.40;;;;;;5050686;28;19921;-70
2023/09/13 04:18:19;;;;;;;;;;;15.50;64.30;;;;;;5052198;28;20198;-70
2023/09/13 04:20:46;;;;;;;;;;;15.50;64.10;;;;;;5051293;28;19929;-70
2023/09/13 04:23:12;;;;;;;;;;;15.50;63.50;;;;;;5050977;28;19913;-70
2023/09/13 04:25:38;;;;;;;;;;;15.40;63.20;;;;;;5050454;28;19939;-70
2023/09/13 04:28:04;;;;;;;;;;;15.30;63.10;;;;;;5050809;28;19924;-70
2023/09/13 04:30:31;;;;;;;;;;;15.10;62.60;;;;;;5049996;28;19927;-70
2023/09/13 04:33:20;;;;;;;;;;;15.10;63.60;;;;;;5052192;28;19936;-70
2023/09/13 04:35:45;;;;;;;;;;;15.10;63.30;;;;;;5052073;28;20276;-71
2023/09/13 04:38:11;;;;;;;;;;;15.20;63.50;;;;;;5052073;28;19923;-70
2023/09/13 04:40:56;;;;;;;;;;;15.10;63.10;;;;;;5049293;28;19944;-70
2023/09/13 04:43:23;;;;;;;;;;;15.00;62.70;;;;;;5033811;28;20351;-70
2023/09/13 04:45:49;;;;;;;;;;;15.10;63.40;;;;;;5051631;28;20338;-70
2023/09/13 04:48:15;;;;;;;;;;;15.00;63.60;;;;;;5052090;28;19925;-70
2023/09/13 04:50:41;;;;;;;;;;;15.10;63.70;;;;;;5049719;28;19924;-70
2023/09/13 04:53:07;;;;;;;;;;;15.10;64.00;;;;;;5052118;28;19912;-70
2023/09/13 04:55:33;;;;;;;;;;;15.20;63.60;;;;;;5050469;28;19925;-70
2023/09/13 04:57:59;;;;;;;;;;;15.20;63.60;;;;;;5050536;28;20292;-70
2023/09/13 05:00:26;;;;;;;;;;;15.20;63.40;;;;;;5050990;28;19928;-70
2023/09/13 05:02:52;;;;;;;;;;;15.20;63.70;;;;;;5051900;28;19936;-70
2023/09/13 05:05:18;;;;;;;;;;;15.20;63.40;;;;;;5051663;28;19917;-70
2023/09/13 05:07:44;;;;;;;;;;;15.20;63.40;;;;;;5051831;28;19916;-70
2023/09/13 05:10:10;;;;;;;;;;;15.10;63.70;;;;;;5049360;28;20373;-70
2023/09/13 05:12:36;;;;;;;;;;;15.10;63.90;;;;;;5051945;28;19913;-70
2023/09/13 05:15:02;;;;;;;;;;;15.10;64.20;;;;;;5055582;28;19921;-70
2023/09/13 05:17:29;;;;;;;;;;;15.20;64.10;;;;;;5055300;28;20410;-70
2023/09/13 05:19:55;;;;;;;;;;;15.20;64.30;;;;;;5055554;28;20296;-70
2023/09/13 05:22:21;;;;;;;;;;;15.30;64.10;;;;;;5036588;28;19971;-70
2023/09/13 05:24:47;;;;;;;;;;;15.40;64.30;;;;;;5055489;28;19927;-70
2023/09/13 05:27:13;;;;;;;;;;;15.50;64.60;;;;;;5053480;28;19921;-70
2023/09/13 05:29:39;;;;;;;;;;;15.60;64.60;;;;;;5055371;28;20010;-70
2023/09/13 05:32:05;;;;;;;;;;;15.60;65.00;;;;;;5054034;28;20392;-70
2023/09/13 05:34:31;;;;;;;;;;;15.70;65.00;;;;;;5053893;28;19925;-70
2023/09/13 05:36:57;;;;;;;;;;;15.70;65.30;;;;;;5053449;28;19932;-70
2023/09/13 05:39:23;;;;;;;;;;;15.80;65.30;;;;;;5053449;28;19925;-70
2023/09/13 05:41:49;;;;;;;;;;;15.80;65.10;;;;;;5052783;28;19923;-70
2023/09/13 05:44:34;;;;;;;;;;;15.90;65.30;;;;;;5054655;28;19928;-70
2023/09/13 05:47:00;;;;;;;;;;;16.00;64.90;;;;;;5054611;28;19916;-71
2023/09/13 05:49:26;;;;;;;;;;;16.10;65.30;;;;;;5053524;28;19924;-70
2023/09/13 05:51:52;;;;;;;;;;;16.20;65.40;;;;;;5052855;28;19928;-70
2023/09/13 05:54:18;;;;;;;;;;;16.30;65.10;;;;;;5054908;28;20321;-70
2023/09/13 05:56:44;;;;;;;;;;;16.30;65.20;;;;;;5053204;28;19913;-71
2023/09/13 05:59:10;;;;;;;;;;;16.40;65.40;;;;;;5054646;28;19920;-70
2023/09/13 06:01:39;;;;;;;;;;;16.50;65.20;;;;;;5053519;28;19971;-70
2023/09/13 06:04:07;;;;;;;;;;;16.50;65.40;;;;;;5053168;28;19921;-71
2023/09/13 06:06:33;;;;;;;;;;;16.70;65.30;;;;;;5053036;28;19994;-70
2023/09/13 06:09:03;;;;;;;;;;;16.80;65.00;;;;;;5054238;28;19956;-71
2023/09/13 06:11:29;;;;;;;;;;;16.90;65.10;;;;;;5053466;28;20328;-70
2023/09/13 06:13:55;;;;;;;;;;;17.00;65.20;;;;;;5036456;28;20411;-70
2023/09/13 06:16:21;;;;;;;;;;;17.00;65.10;;;;;;5052678;28;19920;-70
2023/09/13 06:18:46;;;;;;;;;;;17.10;65.40;;;;;;5052964;28;20331;-70
2023/09/13 06:21:13;;;;;;;;;;;17.20;65.50;;;;;;5053212;28;19935;-70
2023/09/13 06:23:40;;;;;;;;;;;17.30;66.10;;;;;;5052857;28;19920;-70
2023/09/13 06:26:06;;;;;;;;;;;17.40;65.90;;;;;;5051525;28;20008;-70
2023/09/13 06:28:32;;;;;;;;;;;17.50;65.90;;;;;;5036144;28;20327;-70
2023/09/13 06:30:59;;;;;;;;;;;17.60;66.10;;;;;;5053200;28;19947;-70
2023/09/13 06:33:26;;;;;;;;;;;17.70;66.20;;;;;;5053960;28;20412;-71
2023/09/13 06:35:53;;;;;;;;;;;17.70;66.60;;;;;;5052457;28;19939;-70
2023/09/13 06:38:19;;;;;;;;;;;17.80;65.80;;;;;;5052522;28;20400;-71
2023/09/13 06:40:47;;;;;;;;;;;18.00;66.40;;;;;;5051329;28;19958;-70
2023/09/13 06:43:15;;;;;;;;;;;18.10;67.20;;;;;;5052667;28;20458;-70
2023/09/13 06:45:41;;;;;;;;;;;18.20;67.10;;;;;;5052311;28;19921;-70
2023/09/13 06:48:07;;;;;;;;;;;18.30;67.20;;;;;;5035861;28;20407;-70
2023/09/13 06:50:33;;;;;;;;;;;18.40;67.20;;;;;;5052972;28;19921;-71
2023/09/13 06:52:59;;;;;;;;;;;18.50;67.20;;;;;;5053717;28;19913;-70
2023/09/13 06:55:25;;;;;;;;;;;18.60;67.00;;;;;;5053278;28;19920;-70
2023/09/13 06:57:51;;;;;;;;;;;18.70;67.10;;;;;;5052196;28;19944;-70
2023/09/13 07:00:17;;;;;;;;;;;18.80;66.90;;;;;;5052470;28;19920;-70
2023/09/13 07:02:43;;;;;;;;;;;18.90;66.70;;;;;;5052214;28;19919;-70
2023/09/13 07:05:09;;;;;;;;;;;19.00;66.50;;;;;;5051718;28;19954;-71
2023/09/13 07:07:35;;;;;;;;;;;19.20;66.60;;;;;;5035532;28;19920;-70
2023/09/13 07:10:03;;;;;;;;;;;19.30;66.60;;;;;;5053302;28;19947;-70
2023/09/13 07:12:29;;;;;;;;;;;19.40;66.50;;;;;;5032841;28;20369;-70
2023/09/13 07:14:55;;;;;;;;;;;19.50;66.40;;;;;;5053003;28;19925;-71
2023/09/13 07:17:20;;;;;;;;;;;19.60;65.20;;;;;;5051452;28;19962;-70
2023/09/13 07:19:46;;;;;;;;;;;19.80;65.90;;;;;;5036737;28;19924;-70
2023/09/13 07:22:13;;;;;;;;;;;20.00;65.40;;;;;;5030669;28;19924;-70
2023/09/13 07:24:39;;;;;;;;;;;20.20;65.20;;;;;;5033275;28;19928;-71
2023/09/13 07:27:05;;;;;;;;;;;20.50;64.90;;;;;;5048072;28;19952;-71
2023/09/13 07:29:30;;;;;;;;;;;21.00;63.40;;;;;;5048322;28;20309;-71
2023/09/13 07:31:56;;;;;;;;;;;21.80;62.80;;;;;;5031929;28;19917;-70
2023/09/13 07:34:22;;;;;;;;;;;22.40;61.60;;;;;;5033076;28;19927;-70
2023/09/13 07:36:48;;;;;;;;;;;23.00;60.60;;;;;;5032460;28;20377;-68
2023/09/13 07:39:14;;;;;;;;;;;23.80;58.90;;;;;;5032861;28;19925;-70
2023/09/13 07:41:42;;;;;;;;;;;24.40;57.50;;;;;;5031790;28;20354;-69
2023/09/13 07:44:07;;;;;;;;;;;25.10;55.30;;;;;;5032542;28;20421;-71
2023/09/13 07:46:33;;;;;;;;;;;25.70;54.60;;;;;;5031229;28;19913;-68
2023/09/13 07:48:59;;;;;;;;;;;26.10;51.20;;;;;;5032587;28;19927;-71
2023/09/13 07:51:25;;;;;;;;;;;26.60;51.40;;;;;;5047035;28;19921;-71
2023/09/13 07:53:53;;;;;;;;;;;27.20;49.30;;;;;;5031509;28;20365;-71
2023/09/13 07:56:20;;;;;;;;;;;27.70;46.90;;;;;;5032331;28;20320;-71
2023/09/13 07:58:45;;;;;;;;;;;28.20;45.30;;;;;;5031190;28;19916;-71
2023/09/13 08:01:11;;;;;;;;;;;28.80;43.20;;;;;;5030178;28;20380;-71
2023/09/13 08:03:37;;;;;;;;;;;29.30;40.50;;;;;;5032650;28;19920;-71
2023/09/13 08:06:03;;;;;;;;;;;29.90;40.20;;;;;;5014224;28;19913;-71
2023/09/13 08:08:32;;;;;;;;;;;30.60;38.30;;;;;;5032537;28;20267;-71
2023/09/13 08:10:58;;;;;;;;;;;31.10;35.90;;;;;;5031595;28;19925;-69
2023/09/13 08:13:24;;;;;;;;;;;31.60;35.60;;;;;;5032378;28;19917;-71
2023/09/13 08:15:50;;;;;;;;;;;32.30;35.00;;;;;;5030782;28;19917;-71
2023/09/13 08:18:17;;;;;;;;;;;32.60;33.80;;;;;;5047713;28;19971;-70
2023/09/13 08:20:43;;;;;;;;;;;33.00;32.40;;;;;;5029926;28;19928;-70
2023/09/13 08:23:09;;;;;;;;;;;33.40;30.40;;;;;;5047648;28;19985;-70
2023/09/13 08:25:35;;;;;;;;;;;33.40;30.70;;;;;;5032036;28;19933;-71
2023/09/13 08:28:01;;;;;;;;;;;33.10;30.30;;;;;;5032171;28;19912;-71
2023/09/13 08:30:27;;;;;;;;;;;33.40;30.00;;;;;;5031494;28;19925;-71
2023/09/13 08:32:52;;;;;;;;;;;33.40;29.30;;;;;;5047467;28;19913;-71
2023/09/13 08:35:18;;;;;;;;;;;33.30;29.00;;;;;;5031976;28;19963;-71
2023/09/13 08:37:44;;;;;;;;;;;33.10;29.90;;;;;;5030847;28;20385;-71
2023/09/13 08:40:11;;;;;;;;;;;32.80;29.50;;;;;;5029718;28;19917;-71
2023/09/13 08:42:37;;;;;;;;;;;32.50;30.00;;;;;;5032059;28;19913;-70
2023/09/13 08:45:03;;;;;;;;;;;32.30;30.10;;;;;;5030506;28;19967;-71
2023/09/13 08:47:31;;;;;;;;;;;32.30;30.00;;;;;;5031934;28;20396;-71
2023/09/13 08:49:58;;;;;;;;;;;32.60;29.80;;;;;;5034761;28;19921;-71
2023/09/13 08:52:25;;;;;;;;;;;32.70;29.90;;;;;;5033735;28;19921;-70
2023/09/13 08:54:51;;;;;;;;;;;32.80;29.20;;;;;;5018050;28;20002;-70
2023/09/13 08:57:17;;;;;;;;;;;33.00;29.70;;;;;;5034341;28;19913;-71
2023/09/13 08:59:43;;;;;;;;;;;33.70;29.50;;;;;;5034514;28;20317;-71
2023/09/13 09:02:15;;;;;;;;;;;34.20;28.80;;;;;;5034940;28;19923;-70
2023/09/13 09:04:41;;;;;;;;;;;34.70;28.20;;;;;;5051128;28;20420;-70
2023/09/13 09:07:07;;;;;;;;;;;35.20;27.70;;;;;;5034114;28;19913;-70
2023/09/13 09:09:34;;;;;;;;;;;35.90;26.50;;;;;;5051105;28;20281;-70
2023/09/13 09:12:00;;;;;;;;;;;36.20;26.40;;;;;;5033606;28;19924;-71
2023/09/13 09:14:32;;;;;;;;;;;36.00;26.20;;;;;;5051043;28;19925;-71
2023/09/13 09:17:00;;;;;;;;;;;36.20;25.80;;;;;;5033892;28;19920;-71
2023/09/13 09:19:26;;;;;;;;;;;36.00;26.10;;;;;;5050793;28;19925;-70
2023/09/13 09:21:53;;;;;;;;;;;35.80;25.50;;;;;;5034441;28;20388;-71
2023/09/13 09:24:18;;;;;;;;;;;35.70;26.00;;;;;;5050682;28;19927;-70
2023/09/13 09:26:45;;;;;;;;;;;35.60;25.50;;;;;;5033628;28;19913;-71
2023/09/13 09:29:47;;;;;;;;;;;35.20;26.50;;;;;;5035186;28;20012;-71
2023/09/13 09:32:14;;;;;;;;;;;35.20;26.60;;;;;;5049500;28;19923;-70
2023/09/13 09:34:43;;;;;;;;;;;35.10;26.90;;;;;;5034032;28;19921;-70
2023/09/13 09:37:09;;;;;;;;;;;35.00;27.10;;;;;;5033494;28;19945;-71
2023/09/13 09:39:53;;;;;;;;;;;35.40;26.70;;;;;;5034768;28;20388;-71
2023/09/13 09:42:19;;;;;;;;;;;35.60;26.50;;;;;;5032597;28;19963;-71
2023/09/13 09:44:46;;;;;;;;;;;35.70;26.20;;;;;;5016978;28;20313;-70
2023/09/13 09:47:15;;;;;;;;;;;35.60;26.00;;;;;;5050175;28;19974;-71
2023/09/13 09:49:43;;;;;;;;;;;35.50;26.30;;;;;;5033492;28;19931;-70
2023/09/13 09:52:10;;;;;;;;;;;35.90;26.10;;;;;;5033903;28;19955;-70
2023/09/13 09:54:37;;;;;;;;;;;36.40;25.70;;;;;;5050228;28;20271;-70
2023/09/13 09:57:03;;;;;;;;;;;36.80;25.00;;;;;;5033225;28;19936;-71
2023/09/13 09:59:30;;;;;;;;;;;36.90;24.30;;;;;;5049093;28;19927;-71
2023/09/13 10:02:15;;;;;;;;;;;37.90;24.40;;;;;;5032499;28;19924;-70
2023/09/13 10:04:59;;;;;;;;;;;38.80;23.70;;;;;;5035006;28;19925;-71
2023/09/13 10:07:25;;;;;;;;;;;39.00;23.30;;;;;;5033000;28;20525;-71
2023/09/13 10:09:51;;;;;;;;;;;38.30;24.10;;;;;;5049753;28;19928;-71
2023/09/13 10:12:16;;;;;;;;;;;37.70;24.90;;;;;;5032005;28;19921;-71
2023/09/13 10:14:44;;;;;;;;;;;37.40;25.10;;;;;;5033205;28;19947;-71
2023/09/13 10:17:11;;;;;;;;;;;37.60;25.00;;;;;;5032674;28;19917;-71
2023/09/13 10:19:37;;;;;;;;;;;38.80;23.20;;;;;;5049421;28;19920;-71
2023/09/13 10:22:04;;;;;;;;;;;38.50;23.80;;;;;;5033353;28;19921;-71
2023/09/13 10:24:52;;;;;;;;;;;38.40;24.00;;;;;;5032814;28;19927;-71
2023/09/13 10:27:19;;;;;;;;;;;39.90;22.50;;;;;;5032684;28;19974;-71
2023/09/13 10:29:51;;;;;;;;;;;40.70;21.70;;;;;;5032825;28;19931;-71
2023/09/13 10:32:18;;;;;;;;;;;39.80;22.50;;;;;;5032239;28;20304;-71
2023/09/13 10:35:03;;;;;;;;;;;39.00;23.30;;;;;;5032993;28;19921;-71
2023/09/13 10:37:51;;;;;;;;;;;38.30;24.00;;;;;;5033932;28;20004;-71
2023/09/13 10:40:22;;;;;;;;;;;37.70;25.20;;;;;;5031561;28;19947;-71
2023/09/13 10:42:49;;;;;;;;;;;37.60;25.40;;;;;;5016240;28;20366;-71
2023/09/13 10:45:18;;;;;;;;;;;37.80;24.70;;;;;;5048512;28;20373;-71
2023/09/13 10:47:49;;;;;;;;;;;38.80;23.60;;;;;;5033884;28;19913;-71
2023/09/13 10:50:15;;;;;;;;;;;38.60;23.50;;;;;;5047946;28;19921;-71
2023/09/13 10:52:43;;;;;;;;;;;38.20;24.00;;;;;;5033799;28;20000;-71
2023/09/13 10:55:11;;;;;;;;;;;38.00;24.30;;;;;;5032091;28;19976;-71
2023/09/13 10:57:39;;;;;;;;;;;38.20;24.20;;;;;;5032486;28;20015;-71
2023/09/13 11:00:09;;;;;;;;;;;37.80;24.50;;;;;;5048268;28;19928;-71
2023/09/13 11:02:37;;;;;;;;;;;37.40;25.20;;;;;;5034038;28;20273;-71
2023/09/13 11:05:04;;;;;;;;;;;36.80;24.60;;;;;;5032203;28;19975;-71
2023/09/13 11:07:31;;;;;;;;;;;36.60;25.20;;;;;;5032043;28;19920;-70
2023/09/13 11:10:17;;;;;;;;;;;36.30;25.90;;;;;;5033395;28;20043;-71
2023/09/13 11:12:48;;;;;;;;;;;36.10;25.90;;;;;;5028060;28;19964;-71
2023/09/13 11:15:36;;;;;;;;;;;36.00;25.80;;;;;;5012504;28;19925;-71
2023/09/13 11:18:21;;;;;;;;;;;36.10;26.00;;;;;;5013628;28;20285;-71
2023/09/13 11:20:46;;;;;;;;;;;36.00;26.50;;;;;;5017090;28;19921;-71
2023/09/13 11:23:18;;;;;;;;;;;36.00;26.40;;;;;;5032122;28;20396;-71
2023/09/13 11:25:54;;;;;;;;;;;36.20;25.80;;;;;;5015709;28;20324;-71
2023/09/13 11:28:38;;;;;;;;;;;37.20;24.80;;;;;;5033250;28;19917;-71
2023/09/13 11:31:09;;;;;;;;;;;39.50;22.60;;;;;;5047483;28;19932;-71
2023/09/13 11:33:55;;;;;;;;;;;40.90;20.00;;;;;;5031939;28;19913;-71
2023/09/13 11:36:24;;;;;;;;;;;42.50;19.10;;;;;;5031272;28;19921;-71
2023/09/13 11:38:50;;;;;;;;;;;43.60;18.10;;;;;;5031657;28;19913;-70
2023/09/13 11:41:17;;;;;;;;;;;44.30;17.00;;;;;;5031686;28;20377;-71
2023/09/13 11:43:43;;;;;;;;;;;43.80;17.60;;;;;;5032772;28;20001;-71
2023/09/13 11:46:10;;;;;;;;;;;43.50;17.60;;;;;;5047624;28;19917;-70
2023/09/13 11:48:40;;;;;;;;;;;42.90;17.80;;;;;;5031485;28;20432;-70
2023/09/13 11:51:26;;;;;;;;;;;43.10;18.20;;;;;;5046394;28;19959;-71
2023/09/13 11:53:52;;;;;;;;;;;44.20;16.80;;;;;;5031452;28;20267;-71
2023/09/13 11:56:43;;;;;;;;;;;44.20;16.90;;;;;;5032217;28;20385;-71
2023/09/13 11:59:09;;;;;;;;;;;43.20;17.00;;;;;;5032471;28;20302;-71
2023/09/13 12:01:42;;;;;;;;;;;41.80;17.40;;;;;;5046761;28;19948;-71
2023/09/13 12:04:09;;;;;;;;;;;41.40;17.80;;;;;;5031061;28;19925;-71
2023/09/13 12:06:57;;;;;;;;;;;41.50;18.00;;;;;;5047143;28;19924;-70
2023/09/13 12:09:24;;;;;;;;;;;41.40;17.90;;;;;;5031188;28;19960;-72
2023/09/13 12:11:51;;;;;;;;;;;40.80;17.90;;;;;;5030001;28;19928;-71
2023/09/13 12:14:18;;;;;;;;;;;40.20;18.40;;;;;;5030941;28;19924;-71
2023/09/13 12:16:49;;;;;;;;;;;39.90;17.80;;;;;;5030743;28;20278;-71
2023/09/13 12:19:15;;;;;;;;;;;39.90;18.50;;;;;;5014520;28;19918;-71
2023/09/13 12:22:00;;;;;;;;;;;40.10;18.50;;;;;;5046431;28;19924;-71
2023/09/13 12:24:26;;;;;;;;;;;39.60;17.90;;;;;;5031690;28;19929;-71
2023/09/13 12:26:53;;;;;;;;;;;38.70;19.10;;;;;;5031855;28;19913;-71
2023/09/13 12:29:21;;;;;;;;;;;38.20;19.80;;;;;;5047350;28;20417;-71
2023/09/13 12:31:49;;;;;;;;;;;37.80;19.30;;;;;;5046352;28;19964;-70
2023/09/13 12:34:15;;;;;;;;;;;37.70;20.60;;;;;;5032080;28;19921;-70
2023/09/13 12:36:41;;;;;;;;;;;38.50;20.80;;;;;;5047141;28;19917;-70
2023/09/13 12:39:26;;;;;;;;;;;38.90;20.40;;;;;;5030714;28;20063;-70
2023/09/13 12:41:52;;;;;;;;;;;39.80;20.30;;;;;;5031111;28;20317;-70
2023/09/13 12:44:19;;;;;;;;;;;40.80;19.30;;;;;;5030470;28;19921;-70
2023/09/13 12:46:45;;;;;;;;;;;41.20;19.20;;;;;;5030688;28;19943;-71
2023/09/13 12:49:11;;;;;;;;;;;40.40;19.10;;;;;;5014352;28;20387;-70
2023/09/13 12:51:37;;;;;;;;;;;39.80;19.10;;;;;;5031108;28;19923;-70
2023/09/13 12:54:05;;;;;;;;;;;39.60;20.60;;;;;;5030710;28;19963;-70
2023/09/13 12:56:33;;;;;;;;;;;39.00;21.60;;;;;;5031489;28;19917;-70
2023/09/13 12:59:00;;;;;;;;;;;38.70;21.60;;;;;;5030651;28;19928;-70
2023/09/13 13:01:31;;;;;;;;;;;38.60;22.10;;;;;;5030620;28;19924;-70
2023/09/13 13:04:17;;;;;;;;;;;38.50;22.10;;;;;;5030514;28;20015;-70
2023/09/13 13:07:03;;;;;;;;;;;40.30;21.00;;;;;;5031502;28;19913;-71
2023/09/13 13:09:29;;;;;;;;;;;41.90;19.40;;;;;;5031778;28;19928;-70
2023/09/13 13:11:55;;;;;;;;;;;42.20;19.20;;;;;;5029536;28;19921;-71
2023/09/13 13:14:23;;;;;;;;;;;42.00;19.90;;;;;;5031895;28;19931;-70
2023/09/13 13:17:07;;;;;;;;;;;41.80;20.20;;;;;;5031412;28;19913;-71
2023/09/13 13:19:35;;;;;;;;;;;41.50;20.30;;;;;;5030477;28;19925;-70
2023/09/13 13:22:02;;;;;;;;;;;40.80;20.70;;;;;;5046053;28;19917;-71
2023/09/13 13:24:28;;;;;;;;;;;39.80;21.40;;;;;;5014148;28;19925;-70
2023/09/13 13:26:54;;;;;;;;;;;39.30;22.40;;;;;;5030212;28;19917;-71
2023/09/13 13:29:40;;;;;;;;;;;38.70;22.90;;;;;;5030282;28;20027;-70
2023/09/13 13:32:06;;;;;;;;;;;38.40;23.60;;;;;;5046061;28;19920;-70
2023/09/13 13:34:32;;;;;;;;;;;40.00;22.70;;;;;;5048531;28;19921;-70
2023/09/13 13:36:58;;;;;;;;;;;39.80;22.10;;;;;;5033565;28;19919;-70
2023/09/13 13:39:24;;;;;;;;;;;40.30;22.00;;;;;;5033740;28;20058;-70
2023/09/13 13:41:50;;;;;;;;;;;41.00;21.20;;;;;;5034096;28;20000;-70
2023/09/13 13:44:17;;;;;;;;;;;40.50;21.00;;;;;;5034690;28;19920;-70
2023/09/13 13:46:44;;;;;;;;;;;39.80;21.30;;;;;;5034617;28;20412;-71
2023/09/13 13:49:17;;;;;;;;;;;39.40;22.40;;;;;;5034779;28;19921;-70
2023/09/13 13:51:45;;;;;;;;;;;40.00;21.40;;;;;;5033893;28;19950;-70
2023/09/13 13:54:11;;;;;;;;;;;41.40;20.50;;;;;;5033517;28;19921;-70
2023/09/13 13:56:40;;;;;;;;;;;42.90;19.10;;;;;;5034518;28;20336;-70
2023/09/13 13:59:08;;;;;;;;;;;43.90;17.40;;;;;;5049629;28;19978;-70
2023/09/13 14:01:34;;;;;;;;;;;43.50;17.90;;;;;;5033665;28;19917;-70
2023/09/13 14:04:00;;;;;;;;;;;42.00;20.00;;;;;;5033301;28;20024;-70
2023/09/13 14:06:26;;;;;;;;;;;40.70;21.20;;;;;;5034146;28;19912;-70
2023/09/13 14:08:52;;;;;;;;;;;39.80;21.50;;;;;;5034490;28;19913;-70
2023/09/13 14:11:18;;;;;;;;;;;40.30;21.60;;;;;;5048805;28;19917;-70
2023/09/13 14:13:44;;;;;;;;;;;41.80;20.00;;;;;;5034487;28;20007;-70
2023/09/13 14:16:10;;;;;;;;;;;42.40;19.20;;;;;;5032754;28;20292;-70
2023/09/13 14:18:35;;;;;;;;;;;42.80;18.40;;;;;;5016528;28;19917;-70
2023/09/13 14:21:03;;;;;;;;;;;42.30;18.90;;;;;;5032065;28;19917;-70
2023/09/13 14:23:29;;;;;;;;;;;42.30;19.40;;;;;;5034345;28;19913;-70
2023/09/13 14:25:55;;;;;;;;;;;41.90;20.10;;;;;;5032703;28;19932;-71
2023/09/13 14:28:20;;;;;;;;;;;40.60;20.80;;;;;;5034103;28;19924;-70
2023/09/13 14:30:48;;;;;;;;;;;39.40;22.00;;;;;;5031870;28;19921;-70